sensor_id;sensor_type;location;lat;lon;timestamp;P1;durP1;ratioP1;P2;durP2;ratioP2
76417;SDS011;65250;47.602;19.002;2024-03-23T00:52:17;9.35;;;4.97;;
76417;SDS011;65250;47.602;19.002;2024-03-23T00:54:43;11.10;;;5.75;;
76417;SDS011;65250;47.602;19.002;2024-03-23T00:57:09;14.97;;;5.90;;
76417;SDS011;65250;47.602;19.002;2024-03-23T00:59:35;13.88;;;6.03;;
76417;SDS011;65250;47.602;19.002;2024-03-23T01:02:01;10.45;;;5.82;;
76417;SDS011;65250;47.602;19.002;2024-03-23T01:04:27;13.88;;;5.57;;
76417;SDS011;65250;47.602;19.002;2024-03-23T01:06:53;13.83;;;5.97;;
76417;SDS011;65250;47.602;19.002;2024-03-23T01:09:19;13.75;;;5.90;;
76417;SDS011;65250;47.602;19.002;2024-03-23T01:11:45;14.05;;;6.10;;
76417;SDS011;65250;47.602;19.002;2024-03-23T01:14:11;12.55;;;5.78;;
76417;SDS011;65250;47.602;19.002;2024-03-23T01:16:37;10.70;;;4.93;;
76417;SDS011;65250;47.602;19.002;2024-03-23T01:19:03;13.88;;;5.80;;
76417;SDS011;65250;47.602;19.002;2024-03-23T01:21:28;14.48;;;5.93;;
76417;SDS011;65250;47.602;19.002;2024-03-23T01:23:55;14.50;;;5.83;;
76417;SDS011;65250;47.602;19.002;2024-03-23T01:26:21;10.18;;;5.50;;
76417;SDS011;65250;47.602;19.002;2024-03-23T01:28:47;15.00;;;6.43;;
76417;SDS011;65250;47.602;19.002;2024-03-23T01:31:13;12.07;;;5.95;;
76417;SDS011;65250;47.602;19.002;2024-03-23T01:33:39;14.93;;;6.50;;
76417;SDS011;65250;47.602;19.002;2024-03-23T01:36:05;13.63;;;6.22;;
76417;SDS011;65250;47.602;19.002;2024-03-23T01:38:31;14.07;;;6.63;;
76417;SDS011;65250;47.602;19.002;2024-03-23T01:40:57;12.15;;;5.72;;
76417;SDS011;65250;47.602;19.002;2024-03-23T01:43:23;14.43;;;6.27;;
76417;SDS011;65250;47.602;19.002;2024-03-23T01:45:50;16.40;;;6.53;;
76417;SDS011;65250;47.602;19.002;2024-03-23T01:48:19;13.65;;;6.57;;
76417;SDS011;65250;47.602;19.002;2024-03-23T01:50:46;11.65;;;6.07;;
76417;SDS011;65250;47.602;19.002;2024-03-23T01:53:14;13.35;;;6.45;;
76417;SDS011;65250;47.602;19.002;2024-03-23T01:55:43;10.63;;;5.17;;
76417;SDS011;65250;47.602;19.002;2024-03-23T01:58:09;11.88;;;6.35;;
76417;SDS011;65250;47.602;19.002;2024-03-23T02:00:35;14.73;;;6.75;;
76417;SDS011;65250;47.602;19.002;2024-03-23T02:03:01;12.77;;;6.47;;
76417;SDS011;65250;47.602;19.002;2024-03-23T02:05:27;14.43;;;6.30;;
76417;SDS011;65250;47.602;19.002;2024-03-23T02:07:53;11.60;;;6.15;;
76417;SDS011;65250;47.602;19.002;2024-03-23T02:10:19;17.05;;;7.00;;
76417;SDS011;65250;47.602;19.002;2024-03-23T02:12:45;14.25;;;6.40;;
76417;SDS011;65250;47.602;19.002;2024-03-23T02:15:11;16.73;;;7.07;;
76417;SDS011;65250;47.602;19.002;2024-03-23T02:17:37;14.48;;;7.35;;
76417;SDS011;65250;47.602;19.002;2024-03-23T02:20:03;14.77;;;6.80;;
76417;SDS011;65250;47.602;19.002;2024-03-23T02:22:38;14.03;;;6.53;;
76417;SDS011;65250;47.602;19.002;2024-03-23T02:25:04;14.73;;;6.78;;
76417;SDS011;65250;47.602;19.002;2024-03-23T02:27:31;14.23;;;6.65;;
76417;SDS011;65250;47.602;19.002;2024-03-23T02:29:57;13.50;;;6.93;;
76417;SDS011;65250;47.602;19.002;2024-03-23T02:32:23;14.25;;;7.18;;
76417;SDS011;65250;47.602;19.002;2024-03-23T02:34:49;13.43;;;6.80;;
76417;SDS011;65250;47.602;19.002;2024-03-23T02:37:15;11.95;;;6.35;;
76417;SDS011;65250;47.602;19.002;2024-03-23T02:39:41;11.77;;;5.57;;
76417;SDS011;65250;47.602;19.002;2024-03-23T02:42:07;12.15;;;5.90;;
76417;SDS011;65250;47.602;19.002;2024-03-23T02:44:33;14.07;;;5.83;;
76417;SDS011;65250;47.602;19.002;2024-03-23T02:46:59;14.77;;;6.57;;
76417;SDS011;65250;47.602;19.002;2024-03-23T02:49:25;13.18;;;6.55;;
76417;SDS011;65250;47.602;19.002;2024-03-23T02:51:52;13.43;;;6.35;;
76417;SDS011;65250;47.602;19.002;2024-03-23T02:54:18;12.00;;;5.57;;
76417;SDS011;65250;47.602;19.002;2024-03-23T02:56:44;15.47;;;6.30;;
76417;SDS011;65250;47.602;19.002;2024-03-23T02:59:10;11.30;;;5.60;;
76417;SDS011;65250;47.602;19.002;2024-03-23T03:01:36;12.40;;;6.45;;
76417;SDS011;65250;47.602;19.002;2024-03-23T03:04:02;16.15;;;6.22;;
76417;SDS011;65250;47.602;19.002;2024-03-23T03:06:30;13.60;;;6.10;;
76417;SDS011;65250;47.602;19.002;2024-03-23T03:08:57;15.20;;;7.25;;
76417;SDS011;65250;47.602;19.002;2024-03-23T03:11:23;11.23;;;6.80;;
76417;SDS011;65250;47.602;19.002;2024-03-23T03:13:49;12.85;;;6.85;;
76417;SDS011;65250;47.602;19.002;2024-03-23T03:16:15;15.00;;;7.23;;
76417;SDS011;65250;47.602;19.002;2024-03-23T03:18:41;14.65;;;7.32;;
76417;SDS011;65250;47.602;19.002;2024-03-23T03:21:07;13.43;;;7.40;;
76417;SDS011;65250;47.602;19.002;2024-03-23T03:23:39;12.75;;;7.15;;
76417;SDS011;65250;47.602;19.002;2024-03-23T03:26:06;11.63;;;6.25;;
76417;SDS011;65250;47.602;19.002;2024-03-23T03:28:32;10.20;;;6.17;;
76417;SDS011;65250;47.602;19.002;2024-03-23T03:30:59;13.45;;;7.15;;
76417;SDS011;65250;47.602;19.002;2024-03-23T03:33:28;13.57;;;7.05;;
76417;SDS011;65250;47.602;19.002;2024-03-23T03:35:54;14.45;;;7.15;;
76417;SDS011;65250;47.602;19.002;2024-03-23T03:38:20;15.90;;;7.68;;
76417;SDS011;65250;47.602;19.002;2024-03-23T03:40:46;15.07;;;7.70;;
76417;SDS011;65250;47.602;19.002;2024-03-23T03:43:12;13.40;;;7.20;;
76417;SDS011;65250;47.602;19.002;2024-03-23T03:45:39;16.10;;;7.85;;
76417;SDS011;65250;47.602;19.002;2024-03-23T03:48:05;13.93;;;7.32;;
76417;SDS011;65250;47.602;19.002;2024-03-23T03:50:32;10.82;;;6.65;;
76417;SDS011;65250;47.602;19.002;2024-03-23T03:52:58;14.53;;;6.67;;
76417;SDS011;65250;47.602;19.002;2024-03-23T03:55:23;14.80;;;7.10;;
76417;SDS011;65250;47.602;19.002;2024-03-23T03:57:49;13.90;;;7.20;;
76417;SDS011;65250;47.602;19.002;2024-03-23T04:00:15;13.27;;;6.67;;
76417;SDS011;65250;47.602;19.002;2024-03-23T04:02:41;15.98;;;7.35;;
76417;SDS011;65250;47.602;19.002;2024-03-23T04:05:07;13.60;;;7.57;;
76417;SDS011;65250;47.602;19.002;2024-03-23T04:07:34;13.48;;;6.82;;
76417;SDS011;65250;47.602;19.002;2024-03-23T04:09:59;9.93;;;6.28;;
76417;SDS011;65250;47.602;19.002;2024-03-23T04:12:26;14.60;;;7.95;;
76417;SDS011;65250;47.602;19.002;2024-03-23T04:14:51;12.38;;;7.07;;
76417;SDS011;65250;47.602;19.002;2024-03-23T04:17:17;12.35;;;7.50;;
76417;SDS011;65250;47.602;19.002;2024-03-23T04:19:44;14.00;;;7.18;;
76417;SDS011;65250;47.602;19.002;2024-03-23T04:22:10;15.80;;;7.60;;
76417;SDS011;65250;47.602;19.002;2024-03-23T04:24:36;13.73;;;7.13;;
76417;SDS011;65250;47.602;19.002;2024-03-23T04:27:02;22.08;;;6.90;;
76417;SDS011;65250;47.602;19.002;2024-03-23T04:29:28;13.43;;;6.63;;
76417;SDS011;65250;47.602;19.002;2024-03-23T04:31:54;13.33;;;7.20;;
76417;SDS011;65250;47.602;19.002;2024-03-23T04:34:21;12.55;;;7.07;;
76417;SDS011;65250;47.602;19.002;2024-03-23T04:36:48;18.95;;;8.77;;
76417;SDS011;65250;47.602;19.002;2024-03-23T04:39:14;15.80;;;8.50;;
76417;SDS011;65250;47.602;19.002;2024-03-23T04:41:40;16.17;;;8.93;;
76417;SDS011;65250;47.602;19.002;2024-03-23T04:44:06;15.33;;;8.90;;
76417;SDS011;65250;47.602;19.002;2024-03-23T04:46:33;17.02;;;8.60;;
76417;SDS011;65250;47.602;19.002;2024-03-23T04:48:59;13.88;;;8.75;;
76417;SDS011;65250;47.602;19.002;2024-03-23T04:51:25;16.58;;;8.98;;
76417;SDS011;65250;47.602;19.002;2024-03-23T04:53:51;15.77;;;8.70;;
76417;SDS011;65250;47.602;19.002;2024-03-23T04:56:17;14.27;;;8.77;;
76417;SDS011;65250;47.602;19.002;2024-03-23T04:58:43;13.70;;;7.78;;
76417;SDS011;65250;47.602;19.002;2024-03-23T05:01:10;14.57;;;8.27;;
76417;SDS011;65250;47.602;19.002;2024-03-23T05:03:36;17.98;;;8.93;;
76417;SDS011;65250;47.602;19.002;2024-03-23T05:06:02;15.00;;;8.17;;
76417;SDS011;65250;47.602;19.002;2024-03-23T05:08:28;16.90;;;8.73;;
76417;SDS011;65250;47.602;19.002;2024-03-23T05:10:55;14.45;;;8.02;;
76417;SDS011;65250;47.602;19.002;2024-03-23T05:13:22;16.08;;;8.43;;
76417;SDS011;65250;47.602;19.002;2024-03-23T05:15:52;15.23;;;8.80;;
76417;SDS011;65250;47.602;19.002;2024-03-23T05:18:21;13.68;;;8.25;;
76417;SDS011;65250;47.602;19.002;2024-03-23T05:20:48;17.48;;;8.77;;
76417;SDS011;65250;47.602;19.002;2024-03-23T05:23:14;19.42;;;9.45;;
76417;SDS011;65250;47.602;19.002;2024-03-23T05:25:41;13.48;;;8.63;;
76417;SDS011;65250;47.602;19.002;2024-03-23T05:28:07;16.05;;;8.80;;
76417;SDS011;65250;47.602;19.002;2024-03-23T05:30:33;17.08;;;9.00;;
76417;SDS011;65250;47.602;19.002;2024-03-23T05:32:59;17.70;;;8.65;;
76417;SDS011;65250;47.602;19.002;2024-03-23T05:35:25;18.65;;;8.95;;
76417;SDS011;65250;47.602;19.002;2024-03-23T05:37:51;17.17;;;9.17;;
76417;SDS011;65250;47.602;19.002;2024-03-23T05:40:17;20.42;;;9.70;;
76417;SDS011;65250;47.602;19.002;2024-03-23T05:42:43;16.45;;;8.90;;
76417;SDS011;65250;47.602;19.002;2024-03-23T05:45:09;16.55;;;9.27;;
76417;SDS011;65250;47.602;19.002;2024-03-23T05:47:35;18.65;;;9.90;;
76417;SDS011;65250;47.602;19.002;2024-03-23T05:50:01;16.97;;;9.60;;
76417;SDS011;65250;47.602;19.002;2024-03-23T05:52:27;19.70;;;9.55;;
76417;SDS011;65250;47.602;19.002;2024-03-23T05:54:54;19.60;;;9.35;;
76417;SDS011;65250;47.602;19.002;2024-03-23T05:57:19;19.85;;;9.98;;
76417;SDS011;65250;47.602;19.002;2024-03-23T05:59:45;16.30;;;9.90;;
76417;SDS011;65250;47.602;19.002;2024-03-23T06:02:12;19.13;;;9.70;;
76417;SDS011;65250;47.602;19.002;2024-03-23T06:04:38;20.23;;;9.57;;
76417;SDS011;65250;47.602;19.002;2024-03-23T06:07:04;21.17;;;10.43;;
76417;SDS011;65250;47.602;19.002;2024-03-23T06:09:39;16.13;;;9.90;;
76417;SDS011;65250;47.602;19.002;2024-03-23T06:12:08;18.05;;;10.10;;
76417;SDS011;65250;47.602;19.002;2024-03-23T06:14:34;21.15;;;10.45;;
76417;SDS011;65250;47.602;19.002;2024-03-23T06:17:00;16.60;;;10.02;;
76417;SDS011;65250;47.602;19.002;2024-03-23T06:19:27;17.98;;;10.25;;
76417;SDS011;65250;47.602;19.002;2024-03-23T06:21:56;18.23;;;11.05;;
76417;SDS011;65250;47.602;19.002;2024-03-23T06:24:22;38.53;;;12.57;;
76417;SDS011;65250;47.602;19.002;2024-03-23T06:26:48;28.27;;;13.85;;
76417;SDS011;65250;47.602;19.002;2024-03-23T06:29:14;31.60;;;14.23;;
76417;SDS011;65250;47.602;19.002;2024-03-23T06:31:40;28.13;;;14.05;;
76417;SDS011;65250;47.602;19.002;2024-03-23T06:34:06;28.33;;;13.57;;
76417;SDS011;65250;47.602;19.002;2024-03-23T06:36:32;21.63;;;13.93;;
76417;SDS011;65250;47.602;19.002;2024-03-23T06:38:58;21.92;;;13.23;;
76417;SDS011;65250;47.602;19.002;2024-03-23T06:41:24;21.98;;;12.90;;
76417;SDS011;65250;47.602;19.002;2024-03-23T06:43:50;24.38;;;13.70;;
76417;SDS011;65250;47.602;19.002;2024-03-23T06:46:17;20.38;;;12.93;;
76417;SDS011;65250;47.602;19.002;2024-03-23T06:48:44;22.85;;;13.40;;
76417;SDS011;65250;47.602;19.002;2024-03-23T06:51:10;23.25;;;14.10;;
76417;SDS011;65250;47.602;19.002;2024-03-23T06:53:36;22.65;;;14.25;;
76417;SDS011;65250;47.602;19.002;2024-03-23T06:56:02;24.13;;;14.47;;
76417;SDS011;65250;47.602;19.002;2024-03-23T06:58:28;23.90;;;14.55;;
76417;SDS011;65250;47.602;19.002;2024-03-23T07:00:55;22.80;;;13.90;;
76417;SDS011;65250;47.602;19.002;2024-03-23T07:03:21;19.42;;;13.25;;
76417;SDS011;65250;47.602;19.002;2024-03-23T07:05:47;23.90;;;14.35;;
76417;SDS011;65250;47.602;19.002;2024-03-23T07:08:13;20.40;;;13.87;;
76417;SDS011;65250;47.602;19.002;2024-03-23T07:10:44;20.45;;;12.95;;
76417;SDS011;65250;47.602;19.002;2024-03-23T07:13:10;22.90;;;13.13;;
76417;SDS011;65250;47.602;19.002;2024-03-23T07:15:36;20.50;;;13.02;;
76417;SDS011;65250;47.602;19.002;2024-03-23T07:18:02;19.67;;;12.83;;
76417;SDS011;65250;47.602;19.002;2024-03-23T07:20:28;17.42;;;11.52;;
76417;SDS011;65250;47.602;19.002;2024-03-23T07:22:56;21.13;;;11.82;;
76417;SDS011;65250;47.602;19.002;2024-03-23T07:25:22;15.03;;;10.03;;
76417;SDS011;65250;47.602;19.002;2024-03-23T07:27:48;16.20;;;10.43;;
76417;SDS011;65250;47.602;19.002;2024-03-23T07:30:15;18.92;;;10.88;;
76417;SDS011;65250;47.602;19.002;2024-03-23T07:32:43;18.10;;;10.70;;
76417;SDS011;65250;47.602;19.002;2024-03-23T07:35:10;18.23;;;11.98;;
76417;SDS011;65250;47.602;19.002;2024-03-23T07:37:36;17.47;;;10.27;;
76417;SDS011;65250;47.602;19.002;2024-03-23T07:40:02;16.50;;;10.85;;
76417;SDS011;65250;47.602;19.002;2024-03-23T07:42:29;18.55;;;10.38;;
76417;SDS011;65250;47.602;19.002;2024-03-23T07:44:55;18.38;;;10.80;;
76417;SDS011;65250;47.602;19.002;2024-03-23T07:47:22;17.00;;;11.27;;
76417;SDS011;65250;47.602;19.002;2024-03-23T07:49:48;17.33;;;11.43;;
76417;SDS011;65250;47.602;19.002;2024-03-23T07:52:14;19.10;;;12.18;;
76417;SDS011;65250;47.602;19.002;2024-03-23T07:54:40;18.88;;;12.40;;
76417;SDS011;65250;47.602;19.002;2024-03-23T07:57:07;18.13;;;12.38;;
76417;SDS011;65250;47.602;19.002;2024-03-23T07:59:33;19.20;;;11.97;;
76417;SDS011;65250;47.602;19.002;2024-03-23T08:02:00;18.50;;;12.38;;
76417;SDS011;65250;47.602;19.002;2024-03-23T08:04:27;19.90;;;12.70;;
76417;SDS011;65250;47.602;19.002;2024-03-23T08:06:53;19.98;;;12.30;;
76417;SDS011;65250;47.602;19.002;2024-03-23T08:09:19;24.25;;;13.05;;
76417;SDS011;65250;47.602;19.002;2024-03-23T08:11:45;19.30;;;12.57;;
76417;SDS011;65250;47.602;19.002;2024-03-23T08:14:12;23.83;;;13.13;;
76417;SDS011;65250;47.602;19.002;2024-03-23T08:16:38;19.27;;;11.90;;
76417;SDS011;65250;47.602;19.002;2024-03-23T08:19:04;21.23;;;12.10;;
76417;SDS011;65250;47.602;19.002;2024-03-23T08:21:30;18.88;;;12.52;;
76417;SDS011;65250;47.602;19.002;2024-03-23T08:23:56;21.77;;;12.68;;
76417;SDS011;65250;47.602;19.002;2024-03-23T08:26:22;22.08;;;11.73;;
76417;SDS011;65250;47.602;19.002;2024-03-23T08:28:48;19.23;;;12.63;;
76417;SDS011;65250;47.602;19.002;2024-03-23T08:31:14;22.10;;;12.90;;
76417;SDS011;65250;47.602;19.002;2024-03-23T08:33:40;18.02;;;12.60;;
76417;SDS011;65250;47.602;19.002;2024-03-23T08:36:09;17.73;;;11.48;;
76417;SDS011;65250;47.602;19.002;2024-03-23T08:38:39;18.20;;;11.65;;
76417;SDS011;65250;47.602;19.002;2024-03-23T08:41:07;17.23;;;11.23;;
76417;SDS011;65250;47.602;19.002;2024-03-23T08:43:37;19.80;;;11.60;;
76417;SDS011;65250;47.602;19.002;2024-03-23T08:46:14;13.90;;;9.48;;
76417;SDS011;65250;47.602;19.002;2024-03-23T08:48:42;15.05;;;9.52;;
76417;SDS011;65250;47.602;19.002;2024-03-23T08:51:10;14.32;;;9.85;;
76417;SDS011;65250;47.602;19.002;2024-03-23T08:53:37;19.00;;;10.27;;
76417;SDS011;65250;47.602;19.002;2024-03-23T08:56:03;16.92;;;9.85;;
76417;SDS011;65250;47.602;19.002;2024-03-23T08:58:30;13.25;;;8.70;;
76417;SDS011;65250;47.602;19.002;2024-03-23T09:01:31;13.85;;;9.30;;
76417;SDS011;65250;47.602;19.002;2024-03-23T09:03:50;18.80;;;11.50;;
76417;SDS011;65250;47.602;19.002;2024-03-23T09:06:16;22.10;;;13.00;;
76417;SDS011;65250;47.602;19.002;2024-03-23T09:08:43;13.98;;;9.52;;
76417;SDS011;65250;47.602;19.002;2024-03-23T09:11:09;10.55;;;6.28;;
76417;SDS011;65250;47.602;19.002;2024-03-23T09:13:37;9.98;;;7.10;;
76417;SDS011;65250;47.602;19.002;2024-03-23T09:16:04;10.30;;;6.47;;
76417;SDS011;65250;47.602;19.002;2024-03-23T09:18:34;12.47;;;6.67;;
76417;SDS011;65250;47.602;19.002;2024-03-23T09:21:03;11.95;;;6.63;;
76417;SDS011;65250;47.602;19.002;2024-03-23T09:23:29;10.50;;;6.63;;
76417;SDS011;65250;47.602;19.002;2024-03-23T09:25:55;12.02;;;7.05;;
76417;SDS011;65250;47.602;19.002;2024-03-23T09:28:21;9.70;;;6.83;;
76417;SDS011;65250;47.602;19.002;2024-03-23T09:30:47;12.73;;;7.88;;
76417;SDS011;65250;47.602;19.002;2024-03-23T09:33:13;10.00;;;6.78;;
76417;SDS011;65250;47.602;19.002;2024-03-23T09:35:39;10.13;;;7.33;;
76417;SDS011;65250;47.602;19.002;2024-03-23T09:38:05;19.70;;;6.82;;
76417;SDS011;65250;47.602;19.002;2024-03-23T09:40:39;13.63;;;6.57;;
76417;SDS011;65250;47.602;19.002;2024-03-23T09:43:06;9.60;;;6.60;;
76417;SDS011;65250;47.602;19.002;2024-03-23T09:45:32;9.45;;;6.45;;
76417;SDS011;65250;47.602;19.002;2024-03-23T09:48:00;11.37;;;6.30;;
76417;SDS011;65250;47.602;19.002;2024-03-23T09:50:26;10.23;;;6.47;;
76417;SDS011;65250;47.602;19.002;2024-03-23T09:52:52;8.77;;;6.43;;
76417;SDS011;65250;47.602;19.002;2024-03-23T09:55:18;14.23;;;7.07;;
76417;SDS011;65250;47.602;19.002;2024-03-23T09:57:45;7.40;;;6.40;;
76417;SDS011;65250;47.602;19.002;2024-03-23T10:00:12;10.27;;;6.32;;
76417;SDS011;65250;47.602;19.002;2024-03-23T10:02:38;8.88;;;6.50;;
76417;SDS011;65250;47.602;19.002;2024-03-23T10:05:05;11.63;;;6.45;;
76417;SDS011;65250;47.602;19.002;2024-03-23T10:07:46;18.52;;;5.68;;
76417;SDS011;65250;47.602;19.002;2024-03-23T10:10:12;9.87;;;5.37;;
76417;SDS011;65250;47.602;19.002;2024-03-23T10:12:43;7.32;;;6.05;;
76417;SDS011;65250;47.602;19.002;2024-03-23T10:15:21;10.60;;;5.90;;
76417;SDS011;65250;47.602;19.002;2024-03-23T10:17:48;7.68;;;5.95;;
76417;SDS011;65250;47.602;19.002;2024-03-23T10:20:22;6.88;;;5.43;;
76417;SDS011;65250;47.602;19.002;2024-03-23T10:22:49;10.53;;;6.47;;
76417;SDS011;65250;47.602;19.002;2024-03-23T10:25:17;7.30;;;5.50;;
76417;SDS011;65250;47.602;19.002;2024-03-23T10:27:43;6.50;;;5.30;;
76417;SDS011;65250;47.602;19.002;2024-03-23T10:30:10;7.18;;;5.80;;
76417;SDS011;65250;47.602;19.002;2024-03-23T10:32:37;11.03;;;6.33;;
76417;SDS011;65250;47.602;19.002;2024-03-23T10:35:17;12.10;;;6.63;;
76417;SDS011;65250;47.602;19.002;2024-03-23T10:37:49;9.15;;;5.32;;
76417;SDS011;65250;47.602;19.002;2024-03-23T10:40:17;6.95;;;5.45;;
76417;SDS011;65250;47.602;19.002;2024-03-23T10:42:43;12.50;;;5.80;;
76417;SDS011;65250;47.602;19.002;2024-03-23T10:45:10;6.60;;;5.70;;
76417;SDS011;65250;47.602;19.002;2024-03-23T10:47:37;9.57;;;5.60;;
76417;SDS011;65250;47.602;19.002;2024-03-23T10:50:03;9.38;;;6.03;;
76417;SDS011;65250;47.602;19.002;2024-03-23T10:52:32;12.35;;;6.15;;
76417;SDS011;65250;47.602;19.002;2024-03-23T10:54:58;11.40;;;6.13;;
76417;SDS011;65250;47.602;19.002;2024-03-23T10:57:29;8.77;;;5.53;;
76417;SDS011;65250;47.602;19.002;2024-03-23T11:00:01;7.22;;;6.07;;
76417;SDS011;65250;47.602;19.002;2024-03-23T11:02:28;9.25;;;5.72;;
76417;SDS011;65250;47.602;19.002;2024-03-23T11:04:55;12.55;;;6.32;;
76417;SDS011;65250;47.602;19.002;2024-03-23T11:09:50;8.07;;;5.60;;
76417;SDS011;65250;47.602;19.002;2024-03-23T11:14:46;10.73;;;6.82;;
76417;SDS011;65250;47.602;19.002;2024-03-23T11:17:17;10.00;;;6.00;;
76417;SDS011;65250;47.602;19.002;2024-03-23T11:19:44;7.70;;;5.30;;
76417;SDS011;65250;47.602;19.002;2024-03-23T11:22:10;7.15;;;5.47;;
76417;SDS011;65250;47.602;19.002;2024-03-23T11:24:35;7.15;;;5.50;;
76417;SDS011;65250;47.602;19.002;2024-03-23T11:27:02;8.07;;;5.43;;
76417;SDS011;65250;47.602;19.002;2024-03-23T11:29:41;10.57;;;6.05;;
76417;SDS011;65250;47.602;19.002;2024-03-23T11:32:07;7.18;;;5.85;;
76417;SDS011;65250;47.602;19.002;2024-03-23T11:34:35;7.85;;;5.38;;
76417;SDS011;65250;47.602;19.002;2024-03-23T11:37:05;6.10;;;5.10;;
76417;SDS011;65250;47.602;19.002;2024-03-23T11:39:32;6.93;;;4.70;;
76417;SDS011;65250;47.602;19.002;2024-03-23T11:41:58;7.55;;;5.10;;
76417;SDS011;65250;47.602;19.002;2024-03-23T11:44:25;7.45;;;4.60;;
76417;SDS011;65250;47.602;19.002;2024-03-23T11:46:52;6.53;;;4.82;;
76417;SDS011;65250;47.602;19.002;2024-03-23T11:49:22;6.93;;;4.40;;
76417;SDS011;65250;47.602;19.002;2024-03-23T11:51:54;6.07;;;4.30;;
76417;SDS011;65250;47.602;19.002;2024-03-23T11:54:21;5.55;;;3.90;;
76417;SDS011;65250;47.602;19.002;2024-03-23T11:59:34;5.30;;;4.15;;
76417;SDS011;65250;47.602;19.002;2024-03-23T12:02:08;4.80;;;3.83;;
76417;SDS011;65250;47.602;19.002;2024-03-23T12:04:37;5.80;;;3.05;;
76417;SDS011;65250;47.602;19.002;2024-03-23T12:09:36;5.82;;;3.33;;
76417;SDS011;65250;47.602;19.002;2024-03-23T12:12:15;6.03;;;3.57;;
76417;SDS011;65250;47.602;19.002;2024-03-23T12:14:45;4.82;;;3.47;;
76417;SDS011;65250;47.602;19.002;2024-03-23T12:17:14;4.60;;;3.35;;
76417;SDS011;65250;47.602;19.002;2024-03-23T12:19:41;4.90;;;3.47;;
76417;SDS011;65250;47.602;19.002;2024-03-23T12:22:10;4.68;;;3.63;;
76417;SDS011;65250;47.602;19.002;2024-03-23T12:24:36;8.97;;;3.90;;
76417;SDS011;65250;47.602;19.002;2024-03-23T12:27:04;7.22;;;3.50;;
76417;SDS011;65250;47.602;19.002;2024-03-23T12:29:34;4.03;;;3.13;;
76417;SDS011;65250;47.602;19.002;2024-03-23T12:32:00;5.05;;;3.70;;
76417;SDS011;65250;47.602;19.002;2024-03-23T12:34:27;6.43;;;3.72;;
76417;SDS011;65250;47.602;19.002;2024-03-23T12:36:54;4.83;;;3.10;;
76417;SDS011;65250;47.602;19.002;2024-03-23T12:39:20;3.35;;;2.85;;
76417;SDS011;65250;47.602;19.002;2024-03-23T12:41:49;3.85;;;3.00;;
76417;SDS011;65250;47.602;19.002;2024-03-23T12:44:15;4.97;;;3.00;;
76417;SDS011;65250;47.602;19.002;2024-03-23T12:46:41;6.32;;;3.15;;
76417;SDS011;65250;47.602;19.002;2024-03-23T12:49:07;5.03;;;3.30;;
76417;SDS011;65250;47.602;19.002;2024-03-23T12:51:33;4.32;;;3.20;;
76417;SDS011;65250;47.602;19.002;2024-03-23T12:53:59;7.00;;;3.13;;
76417;SDS011;65250;47.602;19.002;2024-03-23T12:56:25;5.70;;;2.90;;
76417;SDS011;65250;47.602;19.002;2024-03-23T12:58:51;4.65;;;3.28;;
76417;SDS011;65250;47.602;19.002;2024-03-23T13:01:19;5.60;;;2.95;;
76417;SDS011;65250;47.602;19.002;2024-03-23T13:03:48;4.68;;;2.80;;
76417;SDS011;65250;47.602;19.002;2024-03-23T13:06:14;4.70;;;2.55;;
76417;SDS011;65250;47.602;19.002;2024-03-23T13:08:41;3.07;;;2.40;;
76417;SDS011;65250;47.602;19.002;2024-03-23T13:11:07;3.95;;;2.63;;
76417;SDS011;65250;47.602;19.002;2024-03-23T13:13:34;3.75;;;2.50;;
76417;SDS011;65250;47.602;19.002;2024-03-23T13:16:00;6.60;;;2.67;;
76417;SDS011;65250;47.602;19.002;2024-03-23T13:18:26;3.00;;;2.53;;
76417;SDS011;65250;47.602;19.002;2024-03-23T13:20:52;5.32;;;2.60;;
76417;SDS011;65250;47.602;19.002;2024-03-23T13:23:18;2.97;;;2.38;;
76417;SDS011;65250;47.602;19.002;2024-03-23T13:25:54;2.65;;;2.30;;
76417;SDS011;65250;47.602;19.002;2024-03-23T13:28:24;5.75;;;2.40;;
76417;SDS011;65250;47.602;19.002;2024-03-23T13:30:50;3.33;;;2.20;;
76417;SDS011;65250;47.602;19.002;2024-03-23T13:33:16;3.58;;;2.28;;
76417;SDS011;65250;47.602;19.002;2024-03-23T13:35:55;3.47;;;2.00;;
76417;SDS011;65250;47.602;19.002;2024-03-23T13:38:22;3.17;;;2.20;;
76417;SDS011;65250;47.602;19.002;2024-03-23T13:40:55;3.83;;;2.37;;
76417;SDS011;65250;47.602;19.002;2024-03-23T13:43:25;6.78;;;2.67;;
76417;SDS011;65250;47.602;19.002;2024-03-23T13:45:58;5.00;;;2.40;;
76417;SDS011;65250;47.602;19.002;2024-03-23T13:48:25;5.25;;;2.10;;
76417;SDS011;65250;47.602;19.002;2024-03-23T13:50:59;3.63;;;2.00;;
76417;SDS011;65250;47.602;19.002;2024-03-23T13:53:28;4.97;;;2.50;;
76417;SDS011;65250;47.602;19.002;2024-03-23T13:55:55;2.85;;;1.80;;
76417;SDS011;65250;47.602;19.002;2024-03-23T13:58:21;3.60;;;2.13;;
76417;SDS011;65250;47.602;19.002;2024-03-23T14:00:49;3.17;;;1.70;;
76417;SDS011;65250;47.602;19.002;2024-03-23T14:03:15;3.57;;;2.10;;
76417;SDS011;65250;47.602;19.002;2024-03-23T14:05:41;2.45;;;1.67;;
76417;SDS011;65250;47.602;19.002;2024-03-23T14:08:07;2.53;;;1.90;;
76417;SDS011;65250;47.602;19.002;2024-03-23T14:10:34;3.47;;;1.83;;
76417;SDS011;65250;47.602;19.002;2024-03-23T14:13:03;3.78;;;1.80;;
76417;SDS011;65250;47.602;19.002;2024-03-23T14:15:29;3.47;;;1.90;;
76417;SDS011;65250;47.602;19.002;2024-03-23T14:17:58;2.92;;;2.17;;
76417;SDS011;65250;47.602;19.002;2024-03-23T14:20:24;3.47;;;2.53;;
76417;SDS011;65250;47.602;19.002;2024-03-23T14:22:51;3.80;;;2.05;;
76417;SDS011;65250;47.602;19.002;2024-03-23T14:25:18;3.78;;;2.30;;
76417;SDS011;65250;47.602;19.002;2024-03-23T14:27:44;2.17;;;1.80;;
76417;SDS011;65250;47.602;19.002;2024-03-23T14:30:11;3.83;;;2.20;;
76417;SDS011;65250;47.602;19.002;2024-03-23T14:32:38;4.07;;;2.08;;
76417;SDS011;65250;47.602;19.002;2024-03-23T14:35:04;2.20;;;2.00;;
76417;SDS011;65250;47.602;19.002;2024-03-23T14:37:31;2.88;;;1.90;;
76417;SDS011;65250;47.602;19.002;2024-03-23T14:39:57;3.87;;;2.20;;
76417;SDS011;65250;47.602;19.002;2024-03-23T14:42:24;3.60;;;2.00;;
76417;SDS011;65250;47.602;19.002;2024-03-23T14:44:50;2.22;;;2.00;;
76417;SDS011;65250;47.602;19.002;2024-03-23T14:47:17;2.25;;;2.00;;
76417;SDS011;65250;47.602;19.002;2024-03-23T14:49:43;6.85;;;2.15;;
76417;SDS011;65250;47.602;19.002;2024-03-23T14:52:13;7.60;;;2.30;;
76417;SDS011;65250;47.602;19.002;2024-03-23T14:54:39;3.63;;;1.92;;
76417;SDS011;65250;47.602;19.002;2024-03-23T14:57:05;5.82;;;2.13;;
76417;SDS011;65250;47.602;19.002;2024-03-23T14:59:37;3.53;;;1.95;;
76417;SDS011;65250;47.602;19.002;2024-03-23T15:02:07;3.03;;;2.10;;
76417;SDS011;65250;47.602;19.002;2024-03-23T15:04:36;2.83;;;1.83;;
76417;SDS011;65250;47.602;19.002;2024-03-23T15:07:01;6.82;;;2.20;;
76417;SDS011;65250;47.602;19.002;2024-03-23T15:09:27;4.45;;;2.15;;
76417;SDS011;65250;47.602;19.002;2024-03-23T15:11:53;7.27;;;1.70;;
76417;SDS011;65250;47.602;19.002;2024-03-23T15:14:23;2.47;;;2.00;;
76417;SDS011;65250;47.602;19.002;2024-03-23T15:16:49;3.83;;;1.70;;
76417;SDS011;65250;47.602;19.002;2024-03-23T15:19:16;2.67;;;2.10;;
76417;SDS011;65250;47.602;19.002;2024-03-23T15:21:43;3.80;;;2.00;;
76417;SDS011;65250;47.602;19.002;2024-03-23T15:24:09;3.00;;;2.03;;